createdAt,value
2023-01-02T00:02:05.910Z,53.40
2023-01-02T00:07:06.896Z,44.90
2023-01-02T00:12:09.962Z,40.60
2023-01-02T00:17:11.065Z,39.90
2023-01-02T00:22:12.594Z,39.20
2023-01-02T00:27:14.335Z,42.20
2023-01-02T00:32:15.529Z,35.60
2023-01-02T00:37:16.489Z,41.80
2023-01-02T00:42:17.455Z,38.30
2023-01-02T00:47:18.527Z,39.70
2023-01-02T00:52:19.475Z,51.80
2023-01-02T00:57:20.463Z,41.80
2023-01-02T01:02:21.546Z,38.70
2023-01-02T01:07:22.646Z,36.70
2023-01-02T01:12:23.623Z,49.00
2023-01-02T01:17:24.593Z,43.70
2023-01-02T01:22:25.571Z,47.90
2023-01-02T01:27:26.479Z,49.00
2023-01-02T01:32:28.784Z,58.50
2023-01-02T01:37:29.868Z,56.00
2023-01-02T01:42:32.906Z,47.00
2023-01-02T01:47:41.918Z,45.00
2023-01-02T01:52:54.310Z,34.80
2023-01-02T01:58:03.360Z,37.60
2023-01-02T02:03:08.253Z,37.30
2023-01-02T02:08:34.556Z,35.80
2023-01-02T02:13:35.806Z,30.80
2023-01-02T02:18:58.878Z,32.70
2023-01-02T02:24:21.718Z,31.30
2023-01-02T02:29:28.585Z,29.90
2023-01-02T02:35:15.623Z,27.90
2023-01-02T02:40:32.097Z,23.20
2023-01-02T02:46:02.050Z,27.30
2023-01-02T02:51:17.564Z,25.80
2023-01-02T02:56:21.069Z,27.50
2023-01-02T03:01:30.185Z,31.10
2023-01-02T03:06:49.872Z,23.80
2023-01-02T03:11:59.167Z,23.90
2023-01-02T03:17:04.712Z,29.10
2023-01-02T03:22:12.989Z,29.70
2023-01-02T03:27:21.295Z,31.80
2023-01-02T03:32:28.499Z,34.20
2023-01-02T03:37:32.560Z,39.90
2023-01-02T03:42:51.147Z,30.40
2023-01-02T03:48:07.358Z,43.90
2023-01-02T03:53:08.322Z,38.70
2023-01-02T03:58:29.779Z,39.70
2023-01-02T04:03:40.560Z,36.20
2023-01-02T04:08:48.882Z,35.80
2023-01-02T04:13:59.074Z,36.30
2023-01-02T04:19:24.274Z,39.40
2023-01-02T04:24:31.900Z,38.70
2023-01-02T04:34:36.895Z,41.20
2023-01-02T04:39:38.949Z,80.10
2023-01-02T04:44:39.894Z,74.50
2023-01-02T04:49:40.835Z,67.80
2023-01-02T04:54:41.790Z,80.20
2023-01-02T04:59:42.749Z,81.00
2023-01-02T05:04:44.467Z,42.20
2023-01-02T05:09:45.466Z,82.40
2023-01-02T05:14:46.479Z,53.50
2023-01-02T05:19:47.444Z,57.00
2023-01-02T05:24:48.401Z,109.90
2023-01-02T05:29:49.358Z,104.10
2023-01-02T05:34:50.326Z,51.30
2023-01-02T05:39:51.332Z,50.50
2023-01-02T05:44:52.353Z,49.70
2023-01-02T05:49:53.317Z,49.60
2023-01-02T05:54:54.315Z,45.40
2023-01-02T05:59:55.280Z,38.70
2023-01-02T06:04:56.225Z,36.90
2023-01-02T06:09:57.247Z,62.10
2023-01-02T06:14:58.251Z,80.70
2023-01-02T06:19:59.167Z,78.50
2023-01-02T06:25:00.169Z,71.00
2023-01-02T06:30:01.148Z,69.00
2023-01-02T06:35:02.149Z,68.30
2023-01-02T06:40:03.889Z,79.00
2023-01-02T06:45:05.830Z,75.10
2023-01-02T06:50:07.773Z,69.30
2023-01-02T06:55:08.850Z,66.90
2023-01-02T07:00:10.768Z,51.10
2023-01-02T07:05:12.240Z,53.20
2023-01-02T07:10:13.232Z,46.90
2023-01-02T07:15:14.329Z,47.20
2023-01-02T07:20:15.849Z,53.80
2023-01-02T07:25:17.988Z,55.60
2023-01-02T07:30:18.958Z,63.40
2023-01-02T07:35:20.405Z,64.50
2023-01-02T07:40:21.623Z,62.90
2023-01-02T07:45:22.627Z,51.00
2023-01-02T07:50:23.630Z,47.20
2023-01-02T07:55:24.623Z,45.30
2023-01-02T08:00:25.598Z,45.60
2023-01-02T08:05:26.587Z,43.10
2023-01-02T08:10:28.062Z,40.80
2023-01-02T08:15:29.453Z,47.20
2023-01-02T08:20:30.663Z,48.70
2023-01-02T08:25:32.057Z,49.80
2023-01-02T08:30:33.192Z,44.90
2023-01-02T08:35:38.792Z,39.30
2023-01-02T08:40:40.515Z,36.50
2023-01-02T08:45:41.746Z,40.80
2023-01-02T08:50:42.913Z,40.00
2023-01-02T08:55:43.957Z,40.20
2023-01-02T09:00:44.968Z,33.70
2023-01-02T09:05:45.994Z,38.00
2023-01-02T09:10:46.942Z,31.30
2023-01-02T09:15:49.028Z,24.00
2023-01-02T09:20:50.149Z,23.40
2023-01-02T09:25:51.333Z,26.80
2023-01-02T09:30:52.653Z,20.10
2023-01-02T09:35:53.837Z,19.40
2023-01-02T09:40:56.854Z,24.10
2023-01-02T09:46:01.332Z,21.00
2023-01-02T09:51:07.774Z,22.80
2023-01-02T09:56:31.896Z,20.90
2023-01-02T10:02:19.699Z,22.30
2023-01-02T10:07:33.208Z,24.40
2023-01-02T10:12:57.608Z,23.10
2023-01-02T10:18:23.906Z,19.00
2023-01-02T10:24:00.485Z,23.40
2023-01-02T10:29:21.354Z,28.80
2023-01-02T10:34:25.761Z,20.50
2023-01-02T10:39:31.995Z,18.60
2023-01-02T10:44:35.148Z,21.30
2023-01-02T10:49:37.353Z,21.40
2023-01-02T10:54:55.050Z,22.50
2023-01-02T11:00:01.559Z,21.20
2023-01-02T11:05:04.444Z,19.10
2023-01-02T11:10:22.836Z,19.90
2023-01-02T11:15:28.161Z,16.70
2023-01-02T11:20:33.094Z,18.50
2023-01-02T11:25:42.320Z,18.90
2023-01-02T11:30:46.740Z,19.40
2023-01-02T11:35:54.760Z,20.80
2023-01-02T11:40:59.021Z,17.60
2023-01-02T11:46:05.574Z,16.60
2023-01-02T11:51:17.792Z,15.10
2023-01-02T11:56:32.855Z,16.60
2023-01-02T12:02:14.570Z,14.70
2023-01-02T12:07:29.104Z,17.60
2023-01-02T12:12:30.708Z,19.30
2023-01-02T12:17:32.304Z,18.80
2023-01-02T12:22:52.326Z,18.50
2023-01-02T12:27:56.852Z,19.60
2023-01-02T12:33:04.335Z,22.10
2023-01-02T12:38:09.149Z,18.10
2023-01-02T12:43:10.703Z,19.30
2023-01-02T12:48:29.352Z,15.40
2023-01-02T12:53:38.586Z,20.30
2023-01-02T12:58:48.981Z,17.50
2023-01-02T13:03:58.269Z,20.80
2023-01-02T13:09:05.846Z,20.90
2023-01-02T13:14:10.012Z,16.80
2023-01-02T13:19:22.501Z,15.60
2023-01-02T13:24:25.222Z,20.70
2023-01-02T13:29:39.462Z,20.70
2023-01-02T13:34:51.753Z,19.20
2023-01-02T13:39:54.939Z,20.30
2023-01-02T13:44:57.655Z,19.00
2023-01-02T13:50:12.945Z,19.60
2023-01-02T13:55:28.694Z,15.90
2023-01-02T14:00:33.868Z,15.80
2023-01-02T14:05:54.022Z,18.00
2023-01-02T14:11:16.030Z,15.60
2023-01-02T14:16:30.161Z,16.50
2023-01-02T14:21:36.522Z,19.90
2023-01-02T14:26:39.467Z,20.30
2023-01-02T14:31:41.649Z,20.40
2023-01-02T14:36:44.161Z,19.20
2023-01-02T14:42:10.944Z,23.10
2023-01-02T14:47:13.824Z,53.10
2023-01-02T14:52:21.003Z,30.60
2023-01-02T14:57:22.642Z,32.30
2023-01-02T15:02:30.559Z,34.20
2023-01-02T15:07:41.251Z,24.80
2023-01-02T15:13:07.544Z,27.80
2023-01-02T15:18:16.680Z,26.50
2023-01-02T15:23:22.773Z,26.20
2023-01-02T15:28:26.027Z,51.30
2023-01-02T15:33:28.959Z,23.80
2023-01-02T15:38:31.087Z,23.50
2023-01-02T15:43:53.675Z,22.50
2023-01-02T15:48:55.813Z,27.80
2023-01-02T15:54:03.109Z,27.40
2023-01-02T15:59:24.312Z,35.50
2023-01-02T16:04:30.243Z,45.90
2023-01-02T16:09:31.899Z,61.90
2023-01-02T16:14:39.684Z,36.80
2023-01-02T16:19:44.510Z,35.60
2023-01-02T16:24:57.304Z,30.90
2023-01-02T16:29:59.066Z,35.00
2023-01-02T16:35:24.103Z,32.30
2023-01-02T16:41:01.379Z,31.60
2023-01-02T16:45:48.352Z,33.20
2023-01-02T16:50:50.620Z,34.60
2023-01-02T16:55:53.046Z,35.80
2023-01-02T17:00:55.451Z,38.90
2023-01-02T17:06:03.011Z,39.90
2023-01-02T17:11:05.180Z,39.00
2023-01-02T17:16:07.223Z,48.20
2023-01-02T17:21:09.194Z,34.30
2023-01-02T17:26:10.878Z,33.30
2023-01-02T17:31:15.422Z,29.80
2023-01-02T17:36:17.257Z,31.20
2023-01-02T17:41:18.974Z,32.80
2023-01-02T17:46:58.123Z,35.50
2023-01-02T17:51:42.105Z,29.40
2023-01-02T17:56:43.943Z,32.70
2023-01-02T18:01:46.375Z,38.90
2023-01-02T18:06:48.054Z,46.40
2023-01-02T18:11:50.009Z,35.80
2023-01-02T18:16:54.263Z,37.20
2023-01-02T18:21:55.978Z,46.00
2023-01-02T18:27:02.280Z,49.50
2023-01-02T18:32:10.217Z,73.30
2023-01-02T18:37:30.193Z,43.90
2023-01-02T18:42:33.660Z,42.60
2023-01-02T18:47:37.237Z,64.10
2023-01-02T18:52:40.088Z,52.50
2023-01-02T18:57:45.183Z,50.70
2023-01-02T19:03:16.234Z,52.00
2023-01-02T19:08:25.112Z,60.40
2023-01-02T19:13:26.784Z,45.60
2023-01-02T19:18:39.590Z,45.90
2023-01-02T19:23:45.750Z,46.40
2023-01-02T19:28:55.667Z,42.60
2023-01-02T19:33:59.134Z,38.50
2023-01-02T19:39:00.744Z,33.80
2023-01-02T19:44:02.367Z,55.30
2023-01-02T19:49:03.934Z,50.10
2023-01-02T19:54:05.942Z,44.40
2023-01-02T19:59:12.607Z,34.60
2023-01-02T20:04:15.983Z,36.80
2023-01-02T20:09:19.632Z,40.10
2023-01-02T20:14:21.272Z,42.50
2023-01-02T20:19:22.901Z,42.00
2023-01-02T20:24:25.631Z,47.40
2023-01-02T20:29:28.349Z,40.50
2023-01-02T20:34:29.991Z,47.90
2023-01-02T20:39:31.857Z,40.80
2023-01-02T20:44:33.809Z,81.30
2023-01-02T20:49:35.499Z,46.20
2023-01-02T20:54:37.532Z,41.90
2023-01-02T20:59:40.305Z,53.10
2023-01-02T21:04:42.055Z,47.40
2023-01-02T21:09:43.641Z,67.30
2023-01-02T21:14:45.204Z,48.90
2023-01-02T21:19:46.890Z,44.70
2023-01-02T21:24:48.886Z,44.70
2023-01-02T21:29:50.547Z,51.90
2023-01-02T21:34:52.123Z,43.40
2023-01-02T21:39:53.682Z,40.40
2023-01-02T21:44:55.537Z,52.70
2023-01-02T21:49:57.092Z,54.40
2023-01-02T21:54:58.641Z,50.30
2023-01-02T22:00:00.634Z,44.60
2023-01-02T22:05:02.245Z,39.90
2023-01-02T22:10:04.349Z,50.10
2023-01-02T22:15:07.633Z,52.30
2023-01-02T22:20:09.663Z,50.00
2023-01-02T22:25:11.446Z,53.10
2023-01-02T22:30:26.167Z,40.20
2023-01-02T22:35:33.075Z,40.10
2023-01-02T22:40:34.710Z,47.40
2023-01-02T22:45:41.562Z,53.70
2023-01-02T22:50:44.423Z,35.70
2023-01-02T22:55:46.297Z,42.90
2023-01-02T23:00:51.067Z,47.30
2023-01-02T23:05:52.914Z,47.80
2023-01-02T23:10:54.556Z,47.90
2023-01-02T23:16:15.137Z,50.70
2023-01-02T23:21:17.045Z,42.30
2023-01-02T23:26:18.887Z,48.60
2023-01-02T23:31:27.173Z,50.80
2023-01-02T23:36:28.782Z,54.80
2023-01-02T23:41:30.462Z,53.00
2023-01-02T23:46:32.391Z,50.50
2023-01-02T23:51:34.110Z,50.50
2023-01-02T23:56:37.178Z,53.50
